Time;durP1;ratioP1;P1;durP2;ratioP2;P2;SDS_P1;SDS_P2;PMS_P1;PMS_P2;Temp;Humidity;BMP_temperature;BMP_pressure;BME280_temperature;BME280_humidity;BME280_pressure;Samples;Min_cycle;Max_cycle;Signal;HPM_P1;HPM_P2
2023/07/05 00:02:45;;;;;;;10.95;9.35;;;;;;;-140.66;100.00;55571.53;5099917;28;20028;-75
2023/07/05 00:05:35;;;;;;;11.82;10.10;;;;;;;-140.66;100.00;55571.53;5099286;28;20094;-76
2023/07/05 00:08:22;;;;;;;15.23;10.70;;;;;;;-140.66;100.00;55571.53;5114482;28;20345;-75
2023/07/05 00:11:10;;;;;;;13.32;9.98;;;;;;;-140.66;100.00;55571.53;5114266;28;20470;-75
2023/07/05 00:13:56;;;;;;;11.48;9.57;;;;;;;-140.66;100.00;55571.53;5113660;28;20039;-75
2023/07/05 00:16:42;;;;;;;14.30;10.15;;;;;;;-140.66;100.00;55571.53;5100751;28;20024;-76
2023/07/05 00:19:28;;;;;;;12.27;10.18;;;;;;;-140.66;100.00;55571.53;5114206;28;20058;-74
2023/07/05 00:22:13;;;;;;;14.50;10.25;;;;;;;-140.66;100.00;55571.53;5114325;28;20030;-75
2023/07/05 00:25:01;;;;;;;14.20;11.00;;;;;;;-140.66;100.00;55571.53;5114920;28;20038;-75
2023/07/05 00:27:48;;;;;;;13.68;10.32;;;;;;;-140.66;100.00;55571.53;5114156;28;20449;-75
2023/07/05 00:30:33;;;;;;;12.50;9.73;;;;;;;-140.66;100.00;55571.53;5114608;28;20023;-75
2023/07/05 00:33:19;;;;;;;13.63;10.85;;;;;;;-140.66;100.00;55571.53;5117565;28;20062;-75
2023/07/05 00:36:05;;;;;;;15.45;10.88;;;;;;;-140.66;100.00;55571.53;5102317;28;20027;-76
2023/07/05 00:38:50;;;;;;;14.63;12.05;;;;;;;-140.66;100.00;55571.53;5118016;28;20043;-76
2023/07/05 00:41:36;;;;;;;15.38;12.35;;;;;;;-140.66;100.00;55571.53;5118271;28;20166;-76
2023/07/05 00:44:22;;;;;;;17.38;11.68;;;;;;;-140.66;100.00;55571.53;5117877;28;20375;-75
2023/07/05 00:47:25;;;;;;;16.15;11.23;;;;;;;-140.66;100.00;55571.53;5118296;28;20364;-75
2023/07/05 00:50:30;;;;;;;17.63;11.77;;;;;;;-140.66;100.00;55571.53;5117040;28;20024;-75
2023/07/05 00:53:17;;;;;;;17.58;11.40;;;;;;;-140.66;100.00;55571.53;5117612;28;20024;-76
2023/07/05 00:56:10;;;;;;;14.63;11.05;;;;;;;-140.66;100.00;55571.53;5117671;28;20035;-75
2023/07/05 00:58:58;;;;;;;13.48;11.40;;;;;;;-140.66;100.00;55571.53;5117981;28;20020;-76
2023/07/05 01:01:44;;;;;;;17.95;12.27;;;;;;;-140.66;100.00;55571.53;5117298;28;20436;-75
2023/07/05 01:04:32;;;;;;;17.58;13.13;;;;;;;-140.66;100.00;55571.53;5117730;28;20110;-75
2023/07/05 01:07:18;;;;;;;19.13;13.00;;;;;;;-140.66;100.00;55571.53;5117341;28;20023;-76
2023/07/05 01:10:05;;;;;;;16.15;12.93;;;;;;;-140.66;100.00;55571.53;5117445;28;20039;-75
2023/07/05 01:13:08;;;;;;;15.75;12.25;;;;;;;-140.66;100.00;55571.53;5117811;28;20381;-76
2023/07/05 01:16:22;;;;;;;15.55;12.60;;;;;;;-140.66;100.00;55571.53;5118032;28;20417;-75
2023/07/05 01:19:26;;;;;;;14.80;11.60;;;;;;;-140.66;100.00;55571.53;5117179;28;20120;-76
2023/07/05 01:22:25;;;;;;;24.38;10.57;;;;;;;-140.66;100.00;55571.53;5118240;28;20023;-76
2023/07/05 01:25:29;;;;;;;14.02;11.05;;;;;;;-140.66;100.00;55571.53;5117428;28;20030;-76
2023/07/05 01:28:26;;;;;;;14.82;10.43;;;;;;;-140.66;100.00;55571.53;5102072;28;20027;-76
2023/07/05 01:31:32;;;;;;;13.40;10.30;;;;;;;-140.66;100.00;55571.53;5116882;28;20020;-75
2023/07/05 01:34:30;;;;;;;14.55;10.25;;;;;;;-140.66;100.00;55571.53;5117162;28;20368;-75
2023/07/05 01:37:40;;;;;;;15.10;10.70;;;;;;;-140.66;100.00;55571.53;5100854;28;20035;-76
2023/07/05 01:40:26;;;;;;;16.58;10.60;;;;;;;-140.66;100.00;55571.53;5116376;28;20038;-75
2023/07/05 01:43:14;;;;;;;12.00;9.68;;;;;;;-140.66;100.00;55571.53;5114947;28;20404;-76
2023/07/05 01:46:15;;;;;;;13.20;10.38;;;;;;;-140.66;100.00;55571.53;5117083;28;20329;-75
2023/07/05 01:49:21;;;;;;;13.88;10.27;;;;;;;-140.66;100.00;55571.53;5101960;28;20367;-75
2023/07/05 01:52:28;;;;;;;15.40;10.20;;;;;;;-140.66;100.00;55571.53;5116988;28;20054;-76
2023/07/05 01:55:28;;;;;;;14.68;10.30;;;;;;;-140.66;100.00;55571.53;5118326;28;20482;-75
2023/07/05 01:58:19;;;;;;;12.77;10.60;;;;;;;-140.66;100.00;55571.53;5111324;28;20014;-74
2023/07/05 02:01:06;;;;;;;12.32;10.45;;;;;;;-140.66;100.00;55571.53;5137012;28;20004;-74
2023/07/05 02:03:53;;;;;;;12.93;10.55;;;;;;;-140.66;100.00;55571.53;5137995;28;20014;-75
2023/07/05 02:06:41;;;;;;;14.15;10.05;;;;;;;-140.66;100.00;55571.53;5134003;27;20023;-74
2023/07/05 02:09:27;;;;;;;12.52;9.32;;;;;;;-140.66;100.00;55571.53;5138828;28;20043;-75
2023/07/05 02:12:12;;;;;;;13.02;10.00;;;;;;;-140.66;100.00;55571.53;5116715;28;20027;-75
2023/07/05 02:14:58;;;;;;;19.00;10.50;;;;;;;-140.66;100.00;55571.53;5123230;28;20463;-75
2023/07/05 02:17:44;;;;;;;13.45;9.43;;;;;;;-140.66;100.00;55571.53;5116681;28;20043;-75
2023/07/05 02:20:30;;;;;;;16.20;10.40;;;;;;;-140.66;100.00;55571.53;5116386;28;20094;-76
2023/07/05 02:23:16;;;;;;;15.23;10.27;;;;;;;-140.66;100.00;55571.53;5116111;28;20031;-74
2023/07/05 02:26:04;;;;;;;17.70;10.55;;;;;;;-140.66;100.00;55571.53;5116379;28;20092;-75
2023/07/05 02:28:50;;;;;;;14.98;10.35;;;;;;;-140.66;100.00;55571.53;5115241;28;20024;-75
2023/07/05 02:31:35;;;;;;;13.50;9.90;;;;;;;-140.66;100.00;55571.53;5116154;28;20041;-76
2023/07/05 02:34:21;;;;;;;15.02;10.50;;;;;;;-140.66;100.00;55571.53;5115769;28;20385;-76
2023/07/05 02:37:11;;;;;;;14.10;10.27;;;;;;;-140.66;100.00;55571.53;5115205;28;20023;-75
2023/07/05 02:39:56;;;;;;;15.23;9.77;;;;;;;-140.66;100.00;55571.53;5116198;28;20066;-76
2023/07/05 02:42:42;;;;;;;12.95;10.20;;;;;;;-140.66;100.00;55571.53;5115561;28;20356;-76
2023/07/05 02:45:28;;;;;;;13.77;10.52;;;;;;;-140.66;100.00;55571.53;5114492;28;20073;-76
2023/07/05 02:48:14;;;;;;;12.70;10.18;;;;;;;-140.66;100.00;55571.53;5115091;28;20024;-76
2023/07/05 02:51:00;;;;;;;13.40;10.02;;;;;;;-140.66;100.00;55571.53;5117090;28;20027;-76
2023/07/05 02:53:46;;;;;;;15.30;9.63;;;;;;;-140.66;100.00;55571.53;5119479;28;20023;-75
2023/07/05 02:56:31;;;;;;;14.07;10.30;;;;;;;-140.66;100.00;55571.53;5115546;28;20019;-75
2023/07/05 02:59:17;;;;;;;19.60;10.60;;;;;;;-140.66;100.00;55571.53;5121241;28;20024;-76
2023/07/05 03:02:03;;;;;;;16.25;11.25;;;;;;;-140.66;100.00;55571.53;5103318;28;20090;-74
2023/07/05 03:04:49;;;;;;;14.27;9.80;;;;;;;-140.66;100.00;55571.53;5120993;28;20095;-72
2023/07/05 03:07:35;;;;;;;13.02;9.55;;;;;;;-140.66;100.00;55571.53;5124115;28;20020;-75
2023/07/05 03:10:21;;;;;;;12.30;10.02;;;;;;;-140.66;100.00;55571.53;5114719;28;20038;-75
2023/07/05 03:13:06;;;;;;;13.30;9.98;;;;;;;-140.66;100.00;55571.53;5115034;28;20439;-75
2023/07/05 03:15:52;;;;;;;14.15;10.35;;;;;;;-140.66;100.00;55571.53;5113633;28;20349;-75
2023/07/05 03:18:38;;;;;;;13.10;9.95;;;;;;;-140.66;100.00;55571.53;5115257;28;20023;-75
2023/07/05 03:21:24;;;;;;;14.40;10.00;;;;;;;-140.66;100.00;55571.53;5114375;28;20044;-75
2023/07/05 03:24:10;;;;;;;14.57;9.50;;;;;;;-140.66;100.00;55571.53;5114458;28;20055;-76
2023/07/05 03:26:56;;;;;;;15.93;9.63;;;;;;;-140.66;100.00;55571.53;5099764;28;20028;-75
2023/07/05 03:29:42;;;;;;;12.73;10.13;;;;;;;-140.66;100.00;55571.53;5114858;28;20118;-75
2023/07/05 03:32:29;;;;;;;12.18;10.18;;;;;;;-140.66;100.00;55571.53;5099725;28;20078;-75
2023/07/05 03:35:15;;;;;;;14.35;10.20;;;;;;;-140.66;100.00;55571.53;5114514;28;20037;-74
2023/07/05 03:38:01;;;;;;;15.73;10.02;;;;;;;-140.66;100.00;55571.53;5114954;28;20024;-75
2023/07/05 03:40:54;;;;;;;16.35;10.38;;;;;;;-140.66;100.00;55571.53;5113912;28;20106;-75
2023/07/05 03:43:42;;;;;;;19.17;10.13;;;;;;;-140.66;100.00;55571.53;5114573;28;20032;-76
2023/07/05 03:46:28;;;;;;;15.60;11.23;;;;;;;-140.66;100.00;55571.53;5114420;28;20084;-77
2023/07/05 03:49:15;;;;;;;17.15;10.23;;;;;;;-140.66;100.00;55571.53;5099612;28;20100;-76
2023/07/05 03:52:00;;;;;;;17.52;11.15;;;;;;;-140.66;100.00;55571.53;5115032;28;20368;-75
2023/07/05 03:54:46;;;;;;;17.80;10.65;;;;;;;-140.66;100.00;55571.53;5114923;28;20023;-75
2023/07/05 03:57:32;;;;;;;15.75;11.18;;;;;;;-140.66;100.00;55571.53;5114177;28;20019;-75
2023/07/05 04:00:18;;;;;;;18.80;11.48;;;;;;;-140.66;100.00;55571.53;5114556;28;20459;-75
2023/07/05 04:03:04;;;;;;;21.60;12.32;;;;;;;-140.66;100.00;55571.53;5114405;28;20085;-76
2023/07/05 04:05:49;;;;;;;34.03;12.40;;;;;;;-140.66;100.00;55571.53;5113845;28;20111;-75
2023/07/05 04:08:35;;;;;;;31.52;13.07;;;;;;;-140.66;100.00;55571.53;5118718;28;20031;-75
2023/07/05 04:11:21;;;;;;;18.00;12.10;;;;;;;-140.66;100.00;55571.53;5117798;28;20099;-76
2023/07/05 04:14:07;;;;;;;28.27;11.90;;;;;;;-140.66;100.00;55571.53;5120130;28;20110;-75
2023/07/05 04:16:52;;;;;;;20.55;12.43;;;;;;;-140.66;100.00;55571.53;5117558;28;20093;-75
2023/07/05 04:19:38;;;;;;;20.80;12.63;;;;;;;-140.66;100.00;55571.53;5120950;28;20103;-76
2023/07/05 04:22:24;;;;;;;16.10;11.23;;;;;;;-140.66;100.00;55571.53;5120121;28;20039;-75
2023/07/05 04:25:10;;;;;;;24.50;11.60;;;;;;;-140.66;100.00;55571.53;5122006;28;20028;-75
2023/07/05 04:27:55;;;;;;;15.95;12.05;;;;;;;-140.66;100.00;55571.53;5104737;28;20020;-75
2023/07/05 04:30:41;;;;;;;13.75;11.18;;;;;;;-140.66;100.00;55571.53;5119214;28;20035;-75
2023/07/05 04:33:27;;;;;;;14.52;10.70;;;;;;;-140.66;100.00;55571.53;5119802;28;20496;-75
2023/07/05 04:36:13;;;;;;;19.88;10.75;;;;;;;-140.66;100.00;55571.53;5119436;28;20035;-75
2023/07/05 04:39:00;;;;;;;19.50;11.23;;;;;;;-140.66;100.00;55571.53;5104124;28;20127;-76
2023/07/05 04:41:46;;;;;;;14.68;10.52;;;;;;;-140.66;100.00;55571.53;5117496;28;20113;-76
2023/07/05 04:44:32;;;;;;;15.25;11.52;;;;;;;-140.66;100.00;55571.53;5116038;28;20024;-75
2023/07/05 04:47:17;;;;;;;16.05;12.02;;;;;;;-140.66;100.00;55571.53;5117564;28;20019;-76
2023/07/05 04:50:04;;;;;;;19.27;11.93;;;;;;;-140.66;100.00;55571.53;5103944;28;20091;-75
2023/07/05 04:52:49;;;;;;;12.75;10.88;;;;;;;-140.66;100.00;55571.53;5117692;28;20035;-75
2023/07/05 04:55:35;;;;;;;21.13;11.00;;;;;;;-140.66;100.00;55571.53;5117009;28;20031;-76
2023/07/05 04:58:22;;;;;;;19.40;12.40;;;;;;;-140.66;100.00;55571.53;5102454;28;20031;-78
2023/07/05 05:01:09;;;;;;;12.23;10.07;;;;;;;-140.66;100.00;55571.53;5118276;28;20083;-76
2023/07/05 05:03:55;;;;;;;16.98;10.35;;;;;;;-140.66;100.00;55571.53;5102108;28;20036;-76
2023/07/05 05:06:40;;;;;;;12.80;10.15;;;;;;;-140.66;100.00;55571.53;5117447;28;20028;-76
2023/07/05 05:09:26;;;;;;;15.60;10.50;;;;;;;-140.66;100.00;55571.53;5117775;28;20028;-76
2023/07/05 05:12:12;;;;;;;17.73;10.27;;;;;;;-140.66;100.00;55571.53;5117611;28;20023;-75
2023/07/05 05:14:57;;;;;;;12.43;10.30;;;;;;;-140.66;100.00;55571.53;5122050;28;20023;-75
2023/07/05 05:17:43;;;;;;;18.25;10.15;;;;;;;-140.66;100.00;55571.53;5133781;27;20471;-76
2023/07/05 05:20:30;;;;;;;15.95;10.15;;;;;;;-140.66;100.00;55571.53;5117641;28;20382;-76
2023/07/05 05:23:16;;;;;;;14.30;9.80;;;;;;;-140.66;100.00;55571.53;5102319;28;20039;-76
2023/07/05 05:26:03;;;;;;;15.68;10.00;;;;;;;-140.66;100.00;55571.53;5117057;28;20031;-76
2023/07/05 05:28:48;;;;;;;24.38;11.02;;;;;;;-140.66;100.00;55571.53;5117594;28;20042;-77
2023/07/05 05:31:34;;;;;;;18.80;10.80;;;;;;;-140.66;100.00;55571.53;5101539;28;20119;-76
2023/07/05 05:34:20;;;;;;;15.93;10.57;;;;;;;-140.66;100.00;55571.53;5124554;28;20015;-74
2023/07/05 05:37:05;;;;;;;17.17;9.68;;;;;;;-140.66;100.00;55571.53;5128110;28;20023;-77
2023/07/05 05:39:51;;;;;;;18.83;10.43;;;;;;;-140.66;100.00;55571.53;5117245;28;20415;-77
2023/07/05 05:42:38;;;;;;;17.08;10.35;;;;;;;-140.66;100.00;55571.53;5116910;28;20073;-76
2023/07/05 05:45:23;;;;;;;17.17;10.80;;;;;;;-140.66;100.00;55571.53;5117579;28;20364;-76
2023/07/05 05:48:09;;;;;;;15.02;11.50;;;;;;;-140.66;100.00;55571.53;5102240;28;20023;-77
2023/07/05 05:50:55;;;;;;;19.52;11.05;;;;;;;-140.66;100.00;55571.53;5115664;28;20024;-75
2023/07/05 05:53:41;;;;;;;17.20;10.95;;;;;;;-140.66;100.00;55571.53;5116538;28;20029;-76
2023/07/05 05:56:27;;;;;;;17.90;11.75;;;;;;;-140.66;100.00;55571.53;5116137;28;20359;-76
2023/07/05 05:59:12;;;;;;;19.80;11.88;;;;;;;-140.66;100.00;55571.53;5115948;28;20054;-76
2023/07/05 06:01:58;;;;;;;21.35;11.40;;;;;;;-140.66;100.00;55571.53;5116000;28;20024;-76
2023/07/05 06:04:44;;;;;;;12.10;10.40;;;;;;;-140.66;100.00;55571.53;5116661;28;20028;-76
2023/07/05 06:07:30;;;;;;;12.57;10.10;;;;;;;-140.66;100.00;55571.53;5116504;28;20413;-77
2023/07/05 06:10:15;;;;;;;13.35;9.48;;;;;;;-140.66;100.00;55571.53;5100828;28;20034;-75
2023/07/05 06:13:01;;;;;;;17.35;10.15;;;;;;;-140.66;100.00;55571.53;5116334;28;20103;-76
2023/07/05 06:16:10;;;;;;;15.50;10.00;;;;;;;-140.66;100.00;55571.53;5101263;28;20032;-78
2023/07/05 06:18:56;;;;;;;15.52;11.55;;;;;;;-140.66;100.00;55571.53;5115421;28;20517;-77
2023/07/05 06:21:41;;;;;;;11.10;9.10;;;;;;;-140.66;100.00;55571.53;5115861;28;20035;-76
2023/07/05 06:24:27;;;;;;;13.02;9.10;;;;;;;-140.66;100.00;55571.53;5115471;28;20484;-75
2023/07/05 06:27:13;;;;;;;23.80;9.80;;;;;;;-140.66;100.00;55571.53;5102551;28;20031;-76
2023/07/05 06:30:06;;;;;;;12.55;9.00;;;;;;;-140.66;100.00;55571.53;5115496;28;20448;-76
2023/07/05 06:32:52;;;;;;;10.10;9.00;;;;;;;-140.66;100.00;55571.53;5115544;28;20019;-76
2023/07/05 06:35:37;;;;;;;11.05;9.20;;;;;;;-140.66;100.00;55571.53;5115779;28;20073;-75
2023/07/05 06:38:23;;;;;;;11.27;9.05;;;;;;;-140.66;100.00;55571.53;5100678;28;20031;-76
2023/07/05 06:41:09;;;;;;;12.23;8.70;;;;;;;-140.66;100.00;55571.53;5115334;28;20030;-77
2023/07/05 06:43:55;;;;;;;21.48;9.65;;;;;;;-140.66;100.00;55571.53;5115432;28;20448;-76
2023/07/05 06:46:40;;;;;;;11.50;9.35;;;;;;;-140.66;100.00;55571.53;5115092;28;20496;-76
2023/07/05 06:49:26;;;;;;;13.25;9.35;;;;;;;-140.66;100.00;55571.53;5115618;28;20508;-76
2023/07/05 06:52:12;;;;;;;15.35;10.27;;;;;;;-140.66;100.00;55571.53;5101066;28;20035;-76
2023/07/05 06:54:58;;;;;;;12.57;9.88;;;;;;;-140.66;100.00;55571.53;5115179;28;20337;-75
2023/07/05 06:57:43;;;;;;;16.67;9.93;;;;;;;-140.66;100.00;55571.53;5115058;28;20337;-77
2023/07/05 07:00:29;;;;;;;17.00;9.75;;;;;;;-140.66;100.00;55571.53;5115117;28;20054;-75
2023/07/05 07:03:15;;;;;;;22.02;10.52;;;;;;;-140.66;100.00;55571.53;5099605;28;20043;-76
2023/07/05 07:06:01;;;;;;;12.25;9.70;;;;;;;-140.66;100.00;55571.53;5114453;28;20027;-76
2023/07/05 07:08:46;;;;;;;13.93;10.07;;;;;;;-140.66;100.00;55571.53;5113570;28;20176;-77
2023/07/05 07:11:32;;;;;;;14.48;9.57;;;;;;;-140.66;100.00;55571.53;5114805;28;20035;-77
2023/07/05 07:14:18;;;;;;;12.10;9.43;;;;;;;-140.66;100.00;55571.53;5114737;28;20023;-75
2023/07/05 07:17:04;;;;;;;13.68;10.32;;;;;;;-140.66;100.00;55571.53;5101374;28;20031;-76
2023/07/05 07:19:50;;;;;;;14.65;10.40;;;;;;;-140.66;100.00;55571.53;5114866;28;20043;-76
2023/07/05 07:22:36;;;;;;;19.05;10.50;;;;;;;-140.66;100.00;55571.53;5114677;28;20019;-77
2023/07/05 07:25:21;;;;;;;18.80;11.35;;;;;;;-140.66;100.00;55571.53;5114413;28;20032;-77
2023/07/05 07:28:07;;;;;;;13.65;10.07;;;;;;;-140.66;100.00;55571.53;5115173;28;20501;-76
2023/07/05 07:30:53;;;;;;;21.08;11.75;;;;;;;-140.66;100.00;55571.53;5114568;28;20460;-76
2023/07/05 07:33:39;;;;;;;28.95;12.05;;;;;;;-140.66;100.00;55571.53;5114831;28;20396;-75
2023/07/05 07:36:27;;;;;;;23.60;11.40;;;;;;;-140.66;100.00;55571.53;5099756;28;20020;-77
2023/07/05 07:39:14;;;;;;;24.45;11.60;;;;;;;-140.66;100.00;55571.53;5114325;28;20111;-76
2023/07/05 07:42:00;;;;;;;15.43;10.68;;;;;;;-140.66;100.00;55571.53;5114117;28;20027;-77
2023/07/05 07:44:46;;;;;;;18.48;11.68;;;;;;;-140.66;100.00;55571.53;5113048;28;20136;-75
2023/07/05 07:47:32;;;;;;;14.23;11.15;;;;;;;-140.66;100.00;55571.53;5114552;28;20023;-76
2023/07/05 07:50:17;;;;;;;15.35;11.45;;;;;;;-140.66;100.00;55571.53;5114790;28;20027;-75
2023/07/05 07:53:03;;;;;;;16.17;10.75;;;;;;;-140.66;100.00;55571.53;5114818;28;20333;-76
2023/07/05 07:55:49;;;;;;;12.57;10.93;;;;;;;-140.66;100.00;55571.53;5099831;28;20359;-75
2023/07/05 07:58:34;;;;;;;12.90;11.52;;;;;;;-140.66;100.00;55571.53;5115028;28;20024;-76
2023/07/05 08:01:30;;;;;;;16.05;11.05;;;;;;;-140.66;100.00;55571.53;5113642;28;20417;-76
2023/07/05 08:04:17;;;;;;;15.40;10.60;;;;;;;-140.66;100.00;55571.53;5114360;28;20364;-76
2023/07/05 08:07:03;;;;;;;12.93;10.90;;;;;;;-140.66;100.00;55571.53;5099863;28;20107;-77
2023/07/05 08:09:53;;;;;;;15.30;10.68;;;;;;;-140.66;100.00;55571.53;5114737;28;20393;-76
2023/07/05 08:12:39;;;;;;;12.95;10.27;;;;;;;-140.66;100.00;55571.53;5115145;28;20035;-76
2023/07/05 08:15:25;;;;;;;25.40;10.80;;;;;;;-140.66;100.00;55571.53;5121111;28;20439;-76
2023/07/05 08:18:10;;;;;;;18.60;9.70;;;;;;;-140.66;100.00;55571.53;5114964;28;20092;-76
2023/07/05 08:20:56;;;;;;;15.27;8.98;;;;;;;-140.66;100.00;55571.53;5106247;28;20048;-75
2023/07/05 08:23:43;;;;;;;15.07;9.27;;;;;;;-140.66;100.00;55571.53;5117933;28;20011;-76
2023/07/05 08:26:29;;;;;;;14.52;8.52;;;;;;;-140.66;100.00;55571.53;5101688;28;20028;-76
2023/07/05 08:29:15;;;;;;;12.20;8.70;;;;;;;-140.66;100.00;55571.53;5114900;28;20089;-76
2023/07/05 08:32:00;;;;;;;10.73;8.10;;;;;;;-140.66;100.00;55571.53;5113860;28;20106;-76
2023/07/05 08:34:46;;;;;;;18.15;9.02;;;;;;;-140.66;100.00;55571.53;5113880;28;20375;-76
2023/07/05 08:37:32;;;;;;;15.75;9.55;;;;;;;-140.66;100.00;55571.53;5113404;28;20110;-76
2023/07/05 08:40:18;;;;;;;18.23;7.75;;;;;;;-140.66;100.00;55571.53;5113555;28;20024;-76
2023/07/05 08:43:50;;;;;;;11.50;7.63;;;;;;;-140.66;100.00;55571.53;5113617;28;20024;-76
2023/07/05 08:46:38;;;;;;;15.02;7.78;;;;;;;-140.66;100.00;55571.53;5081525;28;20454;-76
2023/07/05 08:49:39;;;;;;;25.08;8.05;;;;;;;-140.66;100.00;55571.53;5099425;28;20122;-75
2023/07/05 08:52:31;;;;;;;16.75;7.45;;;;;;;-140.66;100.00;55571.53;5117859;28;20015;-75
2023/07/05 08:55:24;;;;;;;13.38;6.78;;;;;;;-140.66;100.00;55571.53;5126746;28;20048;-76
2023/07/05 08:58:17;;;;;;;12.60;6.28;;;;;;;-140.66;100.00;55571.53;5104950;28;20019;-76
2023/07/05 09:01:05;;;;;;;9.90;6.40;;;;;;;-140.66;100.00;55571.53;5117943;28;20420;-76
2023/07/05 09:03:51;;;;;;;16.80;6.63;;;;;;;-140.66;100.00;55571.53;5103529;28;20073;-75
2023/07/05 09:06:50;;;;;;;19.73;6.78;;;;;;;-140.66;100.00;55571.53;5118062;28;20370;-75
2023/07/05 09:09:42;;;;;;;17.35;6.28;;;;;;;-140.66;100.00;55571.53;5117648;28;20112;-75
2023/07/05 09:12:31;;;;;;;15.68;6.22;;;;;;;-140.66;100.00;55571.53;5118145;28;20034;-76
2023/07/05 09:15:29;;;;;;;13.95;5.57;;;;;;;-140.66;100.00;55571.53;5118253;28;20110;-75
2023/07/05 09:18:43;;;;;;;9.07;6.00;;;;;;;-140.66;100.00;55571.53;5117229;28;20478;-76
2023/07/05 09:21:37;;;;;;;6.10;5.22;;;;;;;-140.66;100.00;55571.53;5101935;28;20060;-75
2023/07/05 09:24:27;;;;;;;9.13;5.68;;;;;;;-140.66;100.00;55571.53;5117233;28;20470;-76
2023/07/05 09:27:22;;;;;;;16.92;5.32;;;;;;;-140.66;100.00;55571.53;5117434;28;20106;-75
2023/07/05 09:30:14;;;;;;;25.92;5.82;;;;;;;-140.66;100.00;55571.53;5116497;28;20454;-76
2023/07/05 09:33:38;;;;;;;12.60;4.70;;;;;;;-140.66;100.00;55571.53;5101299;28;20027;-75
2023/07/05 09:36:26;;;;;;;12.82;5.03;;;;;;;-140.66;100.00;55571.53;5033440;28;20465;-75
2023/07/05 09:39:36;;;;;;;7.57;4.28;;;;;;;-140.66;100.00;55571.53;5116624;28;20023;-75
2023/07/05 09:42:38;;;;;;;8.55;4.30;;;;;;;-140.66;100.00;55571.53;5117306;28;20066;-76
2023/07/05 09:45:25;;;;;;;6.13;3.78;;;;;;;-140.66;100.00;55571.53;5117045;28;20336;-76
2023/07/05 09:48:12;;;;;;;8.20;4.70;;;;;;;-140.66;100.00;55571.53;5117198;28;20028;-76
2023/07/05 09:51:03;;;;;;;8.80;4.50;;;;;;;-140.66;100.00;55571.53;5116550;28;20042;-76
2023/07/05 09:53:58;;;;;;;7.47;4.18;;;;;;;-140.66;100.00;55571.53;5101190;28;20107;-75
2023/07/05 09:57:01;;;;;;;6.93;3.88;;;;;;;-140.66;100.00;55571.53;5115622;28;20328;-75
2023/07/05 09:59:47;;;;;;;32.70;5.13;;;;;;;-140.66;100.00;55571.53;5115576;28;20026;-76
2023/07/05 10:02:34;;;;;;;9.27;3.60;;;;;;;-140.66;100.00;55571.53;5116115;28;20379;-75
2023/07/05 10:05:26;;;;;;;5.60;3.67;;;;;;;-140.66;100.00;55571.53;5115502;28;20118;-76
2023/07/05 10:08:16;;;;;;;9.10;3.70;;;;;;;-140.66;100.00;55571.53;5115773;28;20032;-75
2023/07/05 10:11:02;;;;;;;10.73;4.18;;;;;;;-140.66;100.00;55571.53;5115557;28;20402;-76
2023/07/05 10:14:07;;;;;;;5.05;3.65;;;;;;;-140.66;100.00;55571.53;5115592;28;20024;-76
2023/07/05 10:16:54;;;;;;;5.15;3.45;;;;;;;-140.66;100.00;55571.53;5116176;28;20108;-76
2023/07/05 10:19:49;;;;;;;6.40;4.07;;;;;;;-140.66;100.00;55571.53;5116019;28;20048;-75
2023/07/05 10:22:35;;;;;;;5.50;3.70;;;;;;;-140.66;100.00;55571.53;5116543;28;20183;-75
2023/07/05 10:25:22;;;;;;;6.38;3.67;;;;;;;-140.66;100.00;55571.53;5100603;28;20088;-76
2023/07/05 10:28:15;;;;;;;16.42;3.75;;;;;;;-140.66;100.00;55571.53;5116389;28;20436;-76
2023/07/05 10:31:04;;;;;;;7.32;3.55;;;;;;;-140.66;100.00;55571.53;5115186;28;20023;-76
2023/07/05 10:33:49;;;;;;;8.30;3.65;;;;;;;-140.66;100.00;55571.53;5115558;28;20035;-76
2023/07/05 10:36:43;;;;;;;4.78;3.60;;;;;;;-140.66;100.00;55571.53;5115875;28;20028;-75
2023/07/05 10:39:30;;;;;;;7.93;4.15;;;;;;;-140.66;100.00;55571.53;5116486;28;20073;-75
2023/07/05 10:42:16;;;;;;;11.68;3.67;;;;;;;-140.66;100.00;55571.53;5115101;28;20451;-76
2023/07/05 10:45:03;;;;;;;5.30;3.67;;;;;;;-140.66;100.00;55571.53;5115328;28;20398;-76
2023/07/05 10:47:54;;;;;;;10.38;3.70;;;;;;;-140.66;100.00;55571.53;5115949;28;20321;-75
2023/07/05 10:50:40;;;;;;;5.80;3.90;;;;;;;-140.66;100.00;55571.53;5116249;28;20027;-75
2023/07/05 10:53:28;;;;;;;5.18;3.60;;;;;;;-140.66;100.00;55571.53;5115871;28;20024;-77
2023/07/05 10:56:19;;;;;;;3.97;3.50;;;;;;;-140.66;100.00;55571.53;5114827;28;20106;-76
2023/07/05 10:59:27;;;;;;;8.02;3.60;;;;;;;-140.66;100.00;55571.53;5115061;28;20111;-75
2023/07/05 11:02:31;;;;;;;5.50;4.40;;;;;;;-140.66;100.00;55571.53;5115902;28;20106;-75
2023/07/05 11:05:25;;;;;;;4.20;3.80;;;;;;;-140.66;100.00;55571.53;5115643;28;20079;-75
2023/07/05 11:08:25;;;;;;;6.88;3.83;;;;;;;-140.66;100.00;55571.53;5114960;28;20102;-76
2023/07/05 11:11:23;;;;;;;5.72;3.97;;;;;;;-140.66;100.00;55571.53;5100951;28;20039;-75
2023/07/05 11:14:12;;;;;;;8.90;4.45;;;;;;;-140.66;100.00;55571.53;5114860;28;20027;-75
2023/07/05 11:16:58;;;;;;;15.55;4.60;;;;;;;-140.66;100.00;55571.53;5114313;28;20029;-76
2023/07/05 11:19:44;;;;;;;13.48;4.55;;;;;;;-140.66;100.00;55571.53;5114447;28;20052;-75
2023/07/05 11:22:40;;;;;;;4.13;3.70;;;;;;;-140.66;100.00;55571.53;5100343;28;20034;-75
2023/07/05 11:25:53;;;;;;;10.20;4.25;;;;;;;-140.66;100.00;55571.53;5115535;28;20428;-76
2023/07/05 11:28:41;;;;;;;5.57;4.18;;;;;;;-140.66;100.00;55571.53;5099454;28;20031;-76
2023/07/05 11:31:27;;;;;;;9.10;4.75;;;;;;;-140.66;100.00;55571.53;5115165;28;20410;-76
2023/07/05 11:34:21;;;;;;;7.50;3.83;;;;;;;-140.66;100.00;55571.53;5114077;28;20030;-75
2023/07/05 11:37:10;;;;;;;13.10;4.20;;;;;;;-140.66;100.00;55571.53;5114737;28;20028;-75
2023/07/05 11:39:56;;;;;;;7.28;4.50;;;;;;;-140.66;100.00;55571.53;5114428;28;20062;-76
2023/07/05 11:42:41;;;;;;;8.77;4.40;;;;;;;-140.66;100.00;55571.53;5113756;28;20030;-75
2023/07/05 11:45:27;;;;;;;4.40;4.00;;;;;;;-140.66;100.00;55571.53;5114509;28;20061;-75
2023/07/05 11:48:48;;;;;;;8.55;4.38;;;;;;;-140.66;100.00;55571.53;5114148;28;20118;-76
2023/07/05 11:51:34;;;;;;;9.60;4.13;;;;;;;-140.66;100.00;55571.53;5012736;28;20343;-76
2023/07/05 11:54:23;;;;;;;13.82;4.65;;;;;;;-140.66;100.00;55571.53;5113907;28;20024;-75
2023/07/05 11:57:14;;;;;;;13.50;4.50;;;;;;;-140.66;100.00;55571.53;5113466;28;20101;-78
2023/07/05 12:00:18;;;;;;;4.75;4.25;;;;;;;-140.66;100.00;55571.53;5113601;28;20124;-78
2023/07/05 12:03:13;;;;;;;8.30;4.70;;;;;;;-140.66;100.00;55571.53;5115251;28;20134;-76
2023/07/05 12:06:21;;;;;;;9.15;4.50;;;;;;;-140.66;100.00;55571.53;5099882;28;20322;-77
2023/07/05 12:09:26;;;;;;;5.57;4.45;;;;;;;-140.66;100.00;55571.53;5118890;28;20020;-78
2023/07/05 12:12:15;;;;;;;7.63;5.13;;;;;;;-140.66;100.00;55571.53;5126857;28;20020;-75
2023/07/05 12:15:01;;;;;;;10.50;5.03;;;;;;;-140.66;100.00;55571.53;5110547;28;20015;-75
2023/07/05 12:17:46;;;;;;;6.80;4.80;;;;;;;-140.66;100.00;55571.53;5115379;28;20027;-75
2023/07/05 12:20:42;;;;;;;19.73;5.53;;;;;;;-140.66;100.00;55571.53;5114627;28;20056;-75
2023/07/05 12:23:28;;;;;;;6.57;4.15;;;;;;;-140.66;100.00;55571.53;5113973;28;20186;-75
2023/07/05 12:26:24;;;;;;;9.43;4.53;;;;;;;-140.66;100.00;55571.53;5114488;28;20038;-76
2023/07/05 12:29:23;;;;;;;5.88;4.68;;;;;;;-140.66;100.00;55571.53;5118155;28;20110;-75
2023/07/05 12:32:17;;;;;;;8.15;4.35;;;;;;;-140.66;100.00;55571.53;5117386;28;20405;-75
2023/07/05 12:35:25;;;;;;;6.05;4.50;;;;;;;-140.66;100.00;55571.53;5119087;28;20150;-75
2023/07/05 12:38:21;;;;;;;7.05;4.55;;;;;;;-140.66;100.00;55571.53;5118849;28;20035;-76
2023/07/05 12:41:22;;;;;;;11.77;5.07;;;;;;;-140.66;100.00;55571.53;5117776;28;20027;-76